Time;durP1;ratioP1;P1;durP2;ratioP2;P2;SDS_P1;SDS_P2;PMS_P1;PMS_P2;Temp;Humidity;BMP_temperature;BMP_pressure;BME280_temperature;BME280_humidity;BME280_pressure;Samples;Min_cycle;Max_cycle;Signal;HPM_P1;HPM_P2
2023/10/30 00:00:29;;;;;;;1.55;1.52;;;16.20;57.60;;;;;;20667;6834;117260;-76
2023/10/30 00:02:55;;;;;;;2.92;1.50;;;15.90;58.20;;;;;;20675;6834;117720;-76
2023/10/30 00:05:21;;;;;;;1.87;1.77;;;15.60;59.20;;;;;;20448;6834;285508;-76
2023/10/30 00:07:47;;;;;;;1.87;1.70;;;15.60;59.20;;;;;;20665;6834;117270;-76
2023/10/30 00:10:13;;;;;;;1.93;1.83;;;15.30;59.60;;;;;;20693;6834;119194;-76
2023/10/30 00:12:38;;;;;;;2.10;2.00;;;15.30;59.60;;;;;;20686;6834;117154;-76
2023/10/30 00:15:04;;;;;;;2.17;2.00;;;15.20;60.00;;;;;;20472;6834;307238;-76
2023/10/30 00:17:33;;;;;;;2.00;1.90;;;15.30;60.40;;;;;;20476;6834;307608;-76
2023/10/30 00:20:03;;;;;;;2.13;1.83;;;15.60;60.00;;;;;;20445;6834;277990;-76
2023/10/30 00:22:29;;;;;;;2.43;1.90;;;15.80;59.50;;;;;;20452;6834;307538;-76
2023/10/30 00:24:54;;;;;;;2.00;1.90;;;16.00;59.00;;;;;;20463;6834;281460;-76
2023/10/30 00:27:20;;;;;;;1.83;1.73;;;16.10;58.60;;;;;;20680;6834;121222;-77
2023/10/30 00:29:45;;;;;;;1.37;1.33;;;15.90;58.60;;;;;;20639;6834;131228;-76
2023/10/30 00:32:11;;;;;;;2.37;1.40;;;15.60;59.10;;;;;;20549;6834;117592;-78
2023/10/30 00:34:37;;;;;;;2.12;1.92;;;15.30;59.70;;;;;;20410;6834;309375;-76
2023/10/30 00:37:04;;;;;;;1.90;1.70;;;15.30;60.00;;;;;;20382;6834;279659;-76
2023/10/30 00:39:32;;;;;;;1.95;1.73;;;15.60;59.80;;;;;;20416;6834;340009;-76
2023/10/30 00:41:55;;;;;;;2.80;1.70;;;15.80;59.50;;;;;;20653;6834;121109;-76
2023/10/30 00:44:20;;;;;;;2.17;1.98;;;15.60;59.20;;;;;;20469;6834;341786;-76
2023/10/30 00:46:46;;;;;;;2.08;1.90;;;15.70;59.40;;;;;;20473;6834;310023;-76
2023/10/30 00:49:13;;;;;;;1.40;1.30;;;15.80;59.00;;;;;;20680;6834;117457;-76
2023/10/30 00:51:39;;;;;;;1.40;1.40;;;15.70;59.00;;;;;;20674;6834;117114;-76
2023/10/30 00:54:04;;;;;;;1.62;1.52;;;15.40;59.50;;;;;;20652;6834;118179;-76
2023/10/30 00:56:30;;;;;;;1.50;1.40;;;15.10;59.90;;;;;;20675;6832;117610;-76
2023/10/30 00:58:56;;;;;;;1.50;1.40;;;14.90;60.30;;;;;;20666;6833;119102;-77
2023/10/30 01:01:23;;;;;;;1.45;1.45;;;14.70;60.60;;;;;;20694;6834;117479;-76
2023/10/30 01:03:47;;;;;;;2.22;1.73;;;14.60;60.90;;;;;;20453;6834;337469;-76
2023/10/30 01:06:12;;;;;;;1.95;1.80;;;14.70;61.30;;;;;;20490;6834;278031;-76
2023/10/30 01:08:38;;;;;;;2.27;1.50;;;15.00;60.70;;;;;;20718;6834;122228;-76
2023/10/30 01:11:03;;;;;;;3.20;1.70;;;15.00;60.40;;;;;;20697;6834;124397;-77
2023/10/30 01:13:29;;;;;;;1.65;1.55;;;14.80;60.80;;;;;;20476;6834;339836;-76
2023/10/30 01:15:55;;;;;;;3.03;2.00;;;14.90;60.80;;;;;;20477;6834;278885;-77
2023/10/30 01:18:20;;;;;;;2.92;1.85;;;15.20;60.30;;;;;;20474;6834;293462;-75
2023/10/30 01:20:46;;;;;;;1.80;1.70;;;15.40;59.80;;;;;;20683;6834;117156;-76
2023/10/30 01:23:12;;;;;;;2.30;1.60;;;14.90;60.40;;;;;;20677;6834;117658;-76
2023/10/30 01:25:38;;;;;;;2.20;1.80;;;14.90;60.00;;;;;;20474;6834;324009;-76
2023/10/30 01:28:03;;;;;;;2.15;2.05;;;14.90;60.40;;;;;;20457;6834;307501;-76
2023/10/30 01:30:30;;;;;;;1.63;1.53;;;15.10;60.00;;;;;;20699;6834;121920;-76
2023/10/30 01:32:56;;;;;;;1.70;1.60;;;15.00;60.00;;;;;;20699;6834;117644;-75
2023/10/30 01:35:21;;;;;;;1.60;1.50;;;14.70;60.50;;;;;;20686;6834;118475;-76
2023/10/30 01:37:47;;;;;;;1.90;1.80;;;14.50;61.00;;;;;;20471;6834;311313;-76
2023/10/30 01:40:13;;;;;;;2.50;2.10;;;14.50;61.50;;;;;;20474;6834;315724;-76
2023/10/30 01:42:39;;;;;;;1.63;1.53;;;14.80;61.30;;;;;;20674;6834;117250;-76
2023/10/30 01:45:05;;;;;;;1.60;1.60;;;14.80;61.10;;;;;;20678;6834;117357;-75
2023/10/30 01:47:31;;;;;;;1.73;1.63;;;14.50;61.50;;;;;;20680;6834;117837;-76
2023/10/30 01:49:59;;;;;;;1.50;1.50;;;14.10;62.30;;;;;;20675;6834;116675;-76
2023/10/30 01:52:24;;;;;;;1.80;1.70;;;14.10;62.30;;;;;;20685;6834;122291;-75
2023/10/30 01:54:52;;;;;;;3.53;1.73;;;13.90;62.90;;;;;;20685;6834;117685;-76
2023/10/30 01:57:17;;;;;;;1.70;1.70;;;13.90;62.90;;;;;;20681;6834;117138;-76
2023/10/30 01:59:43;;;;;;;2.90;1.90;;;13.80;63.10;;;;;;20473;6834;278949;-76
2023/10/30 02:02:08;;;;;;;2.10;2.00;;;14.00;63.60;;;;;;20453;6834;314920;-76
2023/10/30 02:04:34;;;;;;;2.00;1.80;;;14.40;63.00;;;;;;20475;6834;278796;-76
2023/10/30 02:07:00;;;;;;;2.40;2.20;;;14.70;62.20;;;;;;20474;6834;313021;-76
2023/10/30 02:09:26;;;;;;;2.00;1.90;;;14.90;61.50;;;;;;20680;6832;117534;-76
2023/10/30 02:11:51;;;;;;;3.40;2.30;;;14.70;61.30;;;;;;20449;6834;277571;-76
2023/10/30 02:14:17;;;;;;;1.90;1.80;;;14.70;61.50;;;;;;20672;6834;121616;-76
2023/10/30 02:16:43;;;;;;;2.83;2.20;;;14.70;61.90;;;;;;20467;6834;308025;-76
2023/10/30 02:19:09;;;;;;;2.50;2.30;;;14.70;61.90;;;;;;20665;6834;117134;-76
2023/10/30 02:21:35;;;;;;;3.27;1.90;;;14.40;62.90;;;;;;20655;6834;117642;-75
2023/10/30 02:24:05;;;;;;;2.63;2.53;;;14.40;62.40;;;;;;20438;6834;307164;-76
2023/10/30 02:26:30;;;;;;;2.63;2.40;;;14.40;62.40;;;;;;20665;6834;117642;-76
2023/10/30 02:29:01;;;;;;;2.70;2.50;;;14.40;62.20;;;;;;20467;6834;313577;-76
2023/10/30 02:31:23;;;;;;;2.90;2.80;;;14.50;62.20;;;;;;20480;6834;336682;-76
2023/10/30 02:33:47;;;;;;;2.65;2.45;;;14.70;61.60;;;;;;20463;6834;284791;-76
2023/10/30 02:36:13;;;;;;;2.20;2.10;;;15.00;61.20;;;;;;20672;6834;119613;-76
2023/10/30 02:38:39;;;;;;;2.50;2.10;;;14.60;61.70;;;;;;20682;6834;117627;-76
2023/10/30 02:41:05;;;;;;;2.60;2.30;;;14.60;61.70;;;;;;20460;6834;305619;-75
2023/10/30 02:43:30;;;;;;;2.20;2.10;;;14.70;62.00;;;;;;20683;6834;118112;-75
2023/10/30 02:45:56;;;;;;;2.65;2.45;;;14.60;61.80;;;;;;20442;6834;322723;-76
2023/10/30 02:48:22;;;;;;;2.40;2.30;;;14.70;62.10;;;;;;20666;6834;117476;-76
2023/10/30 02:50:47;;;;;;;1.95;1.85;;;14.60;61.80;;;;;;20657;6834;117691;-75
2023/10/30 02:53:13;;;;;;;1.80;1.70;;;14.20;62.70;;;;;;20669;6834;118952;-76
2023/10/30 02:55:39;;;;;;;2.17;2.03;;;14.10;62.60;;;;;;20670;6834;117423;-77
2023/10/30 02:58:05;;;;;;;2.67;2.58;;;14.00;63.20;;;;;;20457;6834;307507;-76
2023/10/30 03:00:31;;;;;;;2.90;2.70;;;14.10;63.80;;;;;;20467;6834;337922;-76
2023/10/30 03:02:56;;;;;;;2.50;2.40;;;14.50;63.40;;;;;;20673;6834;116166;-76
2023/10/30 03:05:21;;;;;;;2.83;2.30;;;14.40;62.90;;;;;;20676;6834;121161;-76
2023/10/30 03:07:48;;;;;;;2.60;2.40;;;14.20;63.30;;;;;;20449;6834;339747;-76
2023/10/30 03:10:14;;;;;;;2.90;2.70;;;14.40;63.80;;;;;;20466;6834;278398;-76
2023/10/30 03:12:40;;;;;;;3.22;3.03;;;14.60;63.10;;;;;;20455;6834;313569;-76
2023/10/30 03:15:06;;;;;;;2.50;2.40;;;14.90;62.50;;;;;;20680;6834;117865;-76
2023/10/30 03:17:31;;;;;;;2.43;2.33;;;14.80;62.20;;;;;;20671;6834;119746;-75
2023/10/30 03:19:57;;;;;;;3.33;3.12;;;14.60;63.30;;;;;;20481;6832;307481;-76
2023/10/30 03:22:23;;;;;;;5.27;2.90;;;14.60;62.90;;;;;;20691;6833;121346;-76
2023/10/30 03:24:48;;;;;;;2.50;2.40;;;14.60;62.90;;;;;;20682;6834;116451;-76
2023/10/30 03:27:14;;;;;;;2.60;2.40;;;14.40;63.30;;;;;;20686;6834;117540;-76
2023/10/30 03:29:40;;;;;;;2.60;2.40;;;14.10;64.20;;;;;;20688;6834;118213;-76
2023/10/30 03:32:06;;;;;;;2.50;2.30;;;13.90;64.70;;;;;;20654;6834;118005;-76
2023/10/30 03:34:32;;;;;;;3.13;2.93;;;14.00;64.50;;;;;;20457;6834;310055;-76
2023/10/30 03:36:57;;;;;;;3.37;3.13;;;14.20;64.60;;;;;;20457;6834;280527;-76
2023/10/30 03:39:23;;;;;;;3.70;3.50;;;14.60;63.60;;;;;;20458;6834;315644;-76
2023/10/30 03:41:50;;;;;;;4.00;3.80;;;15.10;61.60;;;;;;20450;6834;322311;-76
2023/10/30 03:44:17;;;;;;;4.32;3.92;;;15.00;61.50;;;;;;20468;6834;338243;-76
2023/10/30 03:46:41;;;;;;;3.60;3.40;;;15.20;61.00;;;;;;20680;6834;120505;-76
2023/10/30 03:49:06;;;;;;;4.10;3.70;;;15.00;61.00;;;;;;20474;6834;337061;-76
2023/10/30 03:51:32;;;;;;;4.12;3.92;;;14.90;61.10;;;;;;20484;6834;284240;-81
2023/10/30 03:53:57;;;;;;;3.83;3.60;;;15.00;60.70;;;;;;20651;6834;122851;-76
2023/10/30 03:56:23;;;;;;;4.28;4.07;;;14.80;60.70;;;;;;20438;6834;314556;-76
2023/10/30 03:58:49;;;;;;;4.50;4.20;;;14.80;61.10;;;;;;20441;6834;288202;-76
2023/10/30 04:01:14;;;;;;;17.12;15.73;;;14.90;60.80;;;;;;20451;6834;307374;-77
2023/10/30 04:03:40;;;;;;;4.17;3.97;;;15.00;60.40;;;;;;20658;6834;117495;-76
2023/10/30 04:06:05;;;;;;;3.40;3.20;;;14.80;60.40;;;;;;20647;6834;121171;-76
2023/10/30 04:08:31;;;;;;;3.93;3.63;;;14.40;61.10;;;;;;20674;6834;121704;-76
2023/10/30 04:10:57;;;;;;;4.40;4.20;;;14.10;61.80;;;;;;20473;6834;318231;-76
2023/10/30 04:13:23;;;;;;;3.77;3.57;;;14.00;62.20;;;;;;20657;6834;119863;-77
2023/10/30 04:15:50;;;;;;;4.70;4.40;;;14.00;62.30;;;;;;20426;6834;278029;-76
2023/10/30 04:18:16;;;;;;;4.43;4.03;;;14.10;62.60;;;;;;20682;6834;119504;-76
2023/10/30 04:20:41;;;;;;;4.82;4.43;;;14.00;62.50;;;;;;20479;6834;319204;-76
2023/10/30 04:23:07;;;;;;;4.10;3.80;;;14.10;62.90;;;;;;20689;6834;117500;-76
2023/10/30 04:25:32;;;;;;;4.43;4.12;;;14.00;62.80;;;;;;20496;6834;337505;-76
2023/10/30 04:27:59;;;;;;;3.80;3.60;;;13.90;63.50;;;;;;20644;6834;117655;-76
2023/10/30 04:30:25;;;;;;;5.50;5.07;;;14.00;63.10;;;;;;20465;6834;307466;-76
2023/10/30 04:32:50;;;;;;;5.15;4.85;;;14.10;63.50;;;;;;20476;6832;278375;-76
2023/10/30 04:35:16;;;;;;;4.77;4.37;;;14.30;62.90;;;;;;20463;6834;340271;-76
2023/10/30 04:37:42;;;;;;;5.43;4.97;;;14.70;61.80;;;;;;20451;6834;307558;-76
2023/10/30 04:40:08;;;;;;;4.20;4.00;;;14.60;61.70;;;;;;20644;6834;117251;-76
2023/10/30 04:42:33;;;;;;;5.60;5.20;;;14.50;61.80;;;;;;20462;6834;317243;-76
2023/10/30 04:44:59;;;;;;;4.55;4.35;;;14.50;61.80;;;;;;20676;6834;117226;-76
2023/10/30 04:47:25;;;;;;;4.97;4.68;;;14.30;61.70;;;;;;20453;6834;345411;-76
2023/10/30 04:49:51;;;;;;;5.00;4.70;;;14.30;62.10;;;;;;20435;6834;286026;-76
2023/10/30 04:52:17;;;;;;;4.50;4.20;;;14.40;61.80;;;;;;20684;6834;121933;-76
2023/10/30 04:54:43;;;;;;;3.80;3.60;;;14.40;61.80;;;;;;20461;6834;292912;-76
2023/10/30 04:57:10;;;;;;;5.20;4.90;;;14.40;61.80;;;;;;20461;6834;308767;-76
2023/10/30 04:59:36;;;;;;;4.93;4.63;;;14.50;61.10;;;;;;20672;6834;117777;-76
2023/10/30 05:02:03;;;;;;;5.57;5.27;;;14.40;61.00;;;;;;20362;6834;299193;-76
2023/10/30 05:04:29;;;;;;;5.00;4.70;;;14.40;61.10;;;;;;20679;6834;117280;-76
2023/10/30 05:06:54;;;;;;;5.80;5.40;;;14.30;61.10;;;;;;20464;6834;289735;-76
2023/10/30 05:09:20;;;;;;;5.50;5.10;;;14.30;61.40;;;;;;20675;6834;117493;-76
2023/10/30 05:11:46;;;;;;;5.33;5.00;;;14.30;61.60;;;;;;20459;6834;279304;-76
2023/10/30 05:14:13;;;;;;;5.73;5.33;;;14.50;60.90;;;;;;20474;6834;277576;-78
2023/10/30 05:16:38;;;;;;;6.30;5.90;;;14.50;60.80;;;;;;20457;6834;307033;-78
2023/10/30 05:19:03;;;;;;;5.63;3.87;;;14.70;59.80;;;;;;20721;6834;74068;-80
2023/10/30 05:21:29;;;;;;;6.77;6.33;;;14.50;60.10;;;;;;20690;6834;116948;-79
2023/10/30 05:23:54;;;;;;;8.17;7.67;;;14.20;60.60;;;;;;20675;6834;118948;-81
2023/10/30 05:26:20;;;;;;;6.40;5.90;;;13.90;61.10;;;;;;20474;6834;337514;-78
2023/10/30 05:28:46;;;;;;;7.27;5.23;;;13.90;60.80;;;;;;20587;6834;117323;-79
2023/10/30 05:31:11;;;;;;;5.43;4.93;;;13.90;60.80;;;;;;20691;6834;116638;-78
2023/10/30 05:33:37;;;;;;;7.23;6.77;;;13.60;61.10;;;;;;20478;6834;336225;-78
2023/10/30 05:36:03;;;;;;;6.43;6.00;;;13.70;61.30;;;;;;20683;6834;122103;-78
2023/10/30 05:38:29;;;;;;;5.93;5.53;;;13.60;61.20;;;;;;20702;6834;122629;-77
2023/10/30 05:40:54;;;;;;;7.17;6.60;;;13.40;61.60;;;;;;20501;6905;116612;-78
2023/10/30 05:43:20;;;;;;;8.33;7.73;;;13.20;62.20;;;;;;20272;6904;309355;-78
2023/10/30 05:45:46;;;;;;;8.70;8.13;;;13.30;62.70;;;;;;20258;6905;318038;-78
2023/10/30 05:48:12;;;;;;;8.83;8.13;;;13.90;61.30;;;;;;20268;6905;293554;-79
2023/10/30 05:50:38;;;;;;;7.17;6.67;;;13.90;61.20;;;;;;20475;6905;116559;-78
2023/10/30 05:53:04;;;;;;;9.90;9.10;;;13.80;61.00;;;;;;20474;6905;117787;-78
2023/10/30 05:55:29;;;;;;;8.70;8.00;;;13.50;61.50;;;;;;20262;6905;331573;-78
2023/10/30 05:57:55;;;;;;;8.27;7.67;;;13.60;61.50;;;;;;20242;6905;317143;-79
2023/10/30 06:00:22;;;;;;;10.23;9.53;;;13.90;60.50;;;;;;20210;6905;310949;-76
2023/10/30 06:02:46;;;;;;;8.10;7.40;;;14.10;59.50;;;;;;20438;6905;118013;-76
2023/10/30 06:05:14;;;;;;;6.60;6.00;;;13.50;59.90;;;;;;20434;6905;116792;-79
2023/10/30 06:07:38;;;;;;;6.83;6.43;;;13.50;59.90;;;;;;20441;6905;117943;-76
2023/10/30 06:10:05;;;;;;;6.22;5.72;;;13.00;60.80;;;;;;20429;6905;117622;-76
2023/10/30 06:12:31;;;;;;;7.00;6.50;;;13.00;60.80;;;;;;20418;6905;121846;-77
2023/10/30 06:14:56;;;;;;;7.03;6.43;;;12.80;61.20;;;;;;20438;6905;119625;-77
2023/10/30 06:17:22;;;;;;;7.50;6.85;;;12.50;61.90;;;;;;20443;6905;122255;-77
2023/10/30 06:19:49;;;;;;;9.73;8.83;;;12.50;61.80;;;;;;20163;6905;328160;-75
2023/10/30 06:22:15;;;;;;;8.53;8.00;;;12.70;62.80;;;;;;20181;6905;310248;-76
2023/10/30 06:24:41;;;;;;;9.17;8.47;;;13.10;62.20;;;;;;20194;6905;312539;-73
2023/10/30 06:27:07;;;;;;;8.90;8.10;;;13.40;61.10;;;;;;20437;6905;121964;-76
2023/10/30 06:29:32;;;;;;;8.40;7.80;;;13.30;60.50;;;;;;20228;6905;279955;-77
2023/10/30 06:31:58;;;;;;;9.90;9.17;;;13.50;60.70;;;;;;20209;6905;280812;-78
2023/10/30 06:34:24;;;;;;;9.18;8.48;;;13.70;59.60;;;;;;20443;6905;120813;-76
2023/10/30 06:36:50;;;;;;;8.80;8.00;;;13.30;60.10;;;;;;20450;6905;120692;-75
2023/10/30 06:39:20;;;;;;;7.70;7.03;;;13.30;60.10;;;;;;20435;6905;121043;-77
2023/10/30 06:41:41;;;;;;;11.80;10.80;;;13.10;60.80;;;;;;20233;6905;289033;-77
2023/10/30 06:44:07;;;;;;;10.63;9.93;;;13.30;60.90;;;;;;20217;6905;311363;-74
2023/10/30 06:46:32;;;;;;;10.67;9.87;;;13.70;60.00;;;;;;20225;6905;280603;-74
2023/10/30 06:48:58;;;;;;;8.65;7.95;;;14.00;59.60;;;;;;20441;6905;120087;-72
2023/10/30 06:51:25;;;;;;;7.68;7.07;;;14.00;59.60;;;;;;20461;6905;117459;-71
2023/10/30 06:53:52;;;;;;;9.10;7.30;;;13.80;60.10;;;;;;20458;6903;117837;-74
2023/10/30 06:56:18;;;;;;;7.83;7.20;;;13.80;61.00;;;;;;20492;6904;120119;-74
2023/10/30 06:58:43;;;;;;;8.60;8.00;;;13.70;61.50;;;;;;20240;6905;309718;-73
2023/10/30 07:01:09;;;;;;;7.97;7.37;;;14.00;61.00;;;;;;20447;6905;121447;-73
2023/10/30 07:03:35;;;;;;;7.13;6.53;;;14.20;60.80;;;;;;20426;6905;118019;-73
2023/10/30 07:06:00;;;;;;;8.93;8.20;;;14.20;60.90;;;;;;20175;6905;347332;-71
2023/10/30 07:08:26;;;;;;;8.07;6.97;;;14.40;59.90;;;;;;20438;6888;118241;-69
2023/10/30 07:10:51;;;;;;;8.50;7.90;;;14.50;59.80;;;;;;20209;6888;290352;-70
2023/10/30 07:13:17;;;;;;;7.57;6.97;;;14.70;59.10;;;;;;20461;6888;118437;-70
2023/10/30 07:15:44;;;;;;;7.47;6.80;;;14.80;59.20;;;;;;20405;6907;124644;-73
2023/10/30 07:18:10;;;;;;;7.03;6.57;;;14.70;59.60;;;;;;20392;6904;121926;-74
2023/10/30 07:20:36;;;;;;;9.00;8.40;;;14.90;59.20;;;;;;20253;6896;281740;-71
2023/10/30 07:23:02;;;;;;;8.97;8.27;;;15.30;58.80;;;;;;20257;6896;339395;-72
2023/10/30 07:25:28;;;;;;;8.30;7.80;;;15.30;58.10;;;;;;20194;6899;311581;-72
2023/10/30 07:27:53;;;;;;;7.67;7.07;;;15.70;57.30;;;;;;20389;6908;118481;-72
2023/10/30 07:30:19;;;;;;;8.57;7.97;;;15.60;57.20;;;;;;20224;6908;293052;-71
2023/10/30 07:32:48;;;;;;;8.18;7.47;;;15.70;56.80;;;;;;20438;6908;118122;-72
2023/10/30 07:35:13;;;;;;;8.48;7.87;;;15.60;57.50;;;;;;20229;6908;310811;-70
2023/10/30 07:37:38;;;;;;;8.03;7.40;;;15.60;56.80;;;;;;20406;6909;123006;-69
2023/10/30 07:40:05;;;;;;;8.52;7.93;;;15.60;57.10;;;;;;20192;6909;404954;-72
2023/10/30 07:42:30;;;;;;;8.20;7.20;;;15.80;56.90;;;;;;20438;6909;125484;-73
2023/10/30 07:44:55;;;;;;;8.63;8.10;;;15.80;57.00;;;;;;20220;6909;339118;-73
2023/10/30 07:47:21;;;;;;;8.43;7.83;;;16.00;56.50;;;;;;20231;6909;322908;-72
2023/10/30 07:49:47;;;;;;;6.53;6.00;;;16.50;55.70;;;;;;20194;6905;288862;-70
2023/10/30 07:52:14;;;;;;;6.00;5.27;;;16.80;54.40;;;;;;20241;6905;287947;-71
2023/10/30 07:54:40;;;;;;;6.95;6.55;;;16.80;54.40;;;;;;20180;6905;339309;-71
2023/10/30 07:57:05;;;;;;;6.70;6.20;;;17.10;54.10;;;;;;20419;6905;118041;-71
2023/10/30 07:59:32;;;;;;;7.37;6.87;;;17.10;54.40;;;;;;20239;6905;312830;-72
2023/10/30 08:01:56;;;;;;;6.40;5.80;;;17.10;54.20;;;;;;20452;6905;123018;-72
2023/10/30 08:04:22;;;;;;;5.97;5.57;;;17.10;54.60;;;;;;20477;6905;118206;-71
2023/10/30 08:06:48;;;;;;;6.30;5.80;;;16.90;55.20;;;;;;20292;6904;280351;-72
2023/10/30 08:09:15;;;;;;;6.07;5.77;;;17.10;54.80;;;;;;20484;6905;117566;-72
2023/10/30 08:11:39;;;;;;;7.53;7.03;;;17.30;54.80;;;;;;20260;6905;285601;-73
2023/10/30 08:14:05;;;;;;;6.90;6.50;;;17.20;54.70;;;;;;20233;6905;311611;-72
2023/10/30 08:16:33;;;;;;;4.20;4.00;;;17.50;54.00;;;;;;20219;6905;286897;-71
2023/10/30 08:18:56;;;;;;;5.35;4.85;;;17.80;52.90;;;;;;20142;6905;341922;-71
2023/10/30 08:21:22;;;;;;;5.00;3.40;;;18.10;52.60;;;;;;20440;6905;124511;-71
2023/10/30 08:23:48;;;;;;;5.90;4.37;;;18.10;53.00;;;;;;20416;6905;123325;-72
2023/10/30 08:26:14;;;;;;;5.10;4.80;;;17.80;53.80;;;;;;20424;6905;117757;-72
2023/10/30 08:28:40;;;;;;;5.50;3.80;;;17.80;53.80;;;;;;20437;6905;118046;-73
2023/10/30 08:31:05;;;;;;;5.33;4.93;;;17.60;54.20;;;;;;20239;6905;339208;-71
2023/10/30 08:33:32;;;;;;;6.03;5.53;;;17.70;53.30;;;;;;20248;6905;313907;-72
2023/10/30 08:35:57;;;;;;;5.53;5.10;;;18.00;52.90;;;;;;20440;6905;118555;-72
2023/10/30 08:38:23;;;;;;;4.13;3.93;;;17.90;53.00;;;;;;20438;6905;117719;-72
2023/10/30 08:40:49;;;;;;;5.83;5.10;;;17.80;53.60;;;;;;20241;6905;285602;-72
2023/10/30 08:43:14;;;;;;;5.68;5.32;;;17.80;53.00;;;;;;20237;6905;311407;-72
2023/10/30 08:45:41;;;;;;;5.20;4.80;;;18.10;52.50;;;;;;20238;6905;280691;-72
2023/10/30 08:48:06;;;;;;;4.53;4.23;;;18.70;51.30;;;;;;20218;6905;312251;-72
2023/10/30 08:50:32;;;;;;;4.50;4.20;;;18.60;51.20;;;;;;20440;6905;124402;-72
2023/10/30 08:52:58;;;;;;;4.83;4.43;;;18.80;51.00;;;;;;20241;6905;334177;-72
2023/10/30 08:55:24;;;;;;;4.28;4.07;;;18.70;50.90;;;;;;20227;6905;317866;-72
2023/10/30 08:57:49;;;;;;;5.90;5.50;;;18.90;50.30;;;;;;20127;6905;347071;-72
2023/10/30 09:00:16;;;;;;;3.62;3.42;;;19.10;50.10;;;;;;20290;6905;119555;-72
2023/10/30 09:02:42;;;;;;;3.23;3.03;;;19.00;50.70;;;;;;20288;6905;120881;-72
2023/10/30 09:05:07;;;;;;;3.83;3.50;;;18.70;51.30;;;;;;20387;6905;118035;-72
2023/10/30 09:07:32;;;;;;;3.23;3.00;;;18.40;51.90;;;;;;20443;6905;121592;-72
2023/10/30 09:09:59;;;;;;;3.70;3.50;;;18.10;53.00;;;;;;20424;6905;121334;-71
2023/10/30 09:12:24;;;;;;;3.40;3.17;;;18.10;53.00;;;;;;20241;6905;345967;-71
2023/10/30 09:14:50;;;;;;;3.15;2.83;;;18.30;52.00;;;;;;20455;6905;123892;-71
2023/10/30 09:17:15;;;;;;;5.13;2.90;;;18.40;52.20;;;;;;20451;6903;121358;-71
2023/10/30 09:19:42;;;;;;;3.30;3.00;;;18.30;52.80;;;;;;20455;6904;121296;-71
2023/10/30 09:22:07;;;;;;;3.17;2.80;;;18.30;53.30;;;;;;20430;6905;118452;-70
2023/10/30 09:24:33;;;;;;;6.90;3.13;;;18.30;53.00;;;;;;20252;6905;323388;-70
2023/10/30 09:26:58;;;;;;;3.03;2.27;;;18.60;52.50;;;;;;20451;6905;117793;-72
2023/10/30 09:29:27;;;;;;;1.90;1.80;;;18.70;52.20;;;;;;20450;6905;117574;-70
2023/10/30 09:31:55;;;;;;;3.60;2.20;;;18.80;50.60;;;;;;20230;6905;309656;-74
2023/10/30 09:34:19;;;;;;;2.10;1.93;;;19.10;49.40;;;;;;20230;6905;310990;-76
2023/10/30 09:36:45;;;;;;;8.77;2.43;;;19.10;49.40;;;;;;20462;6905;117944;-83
2023/10/30 09:39:12;;;;;;;2.83;2.10;;;19.10;49.80;;;;;;20252;6905;339189;-80
2023/10/30 09:41:36;;;;;;;2.40;1.93;;;19.20;49.40;;;;;;20256;6905;316649;-80
2023/10/30 09:44:02;;;;;;;2.05;1.50;;;19.40;49.10;;;;;;20474;6905;119222;-84
2023/10/30 09:46:27;;;;;;;2.87;2.10;;;19.40;49.40;;;;;;20263;6905;306632;-84
2023/10/30 09:48:53;;;;;;;5.03;1.80;;;19.40;48.50;;;;;;20471;6905;117529;-78
2023/10/30 09:51:19;;;;;;;2.50;2.30;;;19.30;49.20;;;;;;20424;6905;122120;-80
2023/10/30 09:53:44;;;;;;;4.70;2.00;;;19.10;49.80;;;;;;20249;6905;297154;-78
2023/10/30 09:56:10;;;;;;;2.30;2.10;;;19.20;50.00;;;;;;20236;6905;308172;-79
2023/10/30 09:58:37;;;;;;;5.20;2.30;;;19.40;49.00;;;;;;20225;6905;280496;-78
2023/10/30 10:01:01;;;;;;;3.15;2.10;;;19.60;48.50;;;;;;20227;6909;289754;-80
2023/10/30 10:03:27;;;;;;;1.90;1.80;;;19.80;49.00;;;;;;20433;6909;122107;-84
2023/10/30 10:05:55;;;;;;;3.05;1.98;;;19.70;49.40;;;;;;20216;6909;281587;-74
2023/10/30 10:08:21;;;;;;;2.20;2.00;;;19.70;48.80;;;;;;20221;6909;350373;-74
2023/10/30 10:10:54;;;;;;;4.95;1.85;;;19.80;48.20;;;;;;20211;6909;347034;-74
2023/10/30 10:13:20;;;;;;;1.90;1.80;;;19.90;47.80;;;;;;20431;6909;117449;-81
2023/10/30 10:15:46;;;;;;;1.70;1.60;;;19.80;48.40;;;;;;20205;6909;287760;-74
2023/10/30 10:18:29;;;;;;;5.43;2.00;;;19.60;48.70;;;;;;20403;6909;117824;-76
2023/10/30 10:21:03;;;;;;;2.20;2.00;;;19.30;49.60;;;;;;20434;6909;118836;-77
2023/10/30 10:23:32;;;;;;;6.60;2.43;;;19.30;49.60;;;;;;20324;6909;117730;-73
2023/10/30 10:25:58;;;;;;;2.72;2.50;;;19.10;50.30;;;;;;20242;6898;317383;-77
2023/10/30 10:28:24;;;;;;;1.73;1.63;;;19.20;50.00;;;;;;20443;6896;117760;-75
2023/10/30 10:30:52;;;;;;;1.90;1.80;;;19.20;50.10;;;;;;20214;6897;339217;-81
2023/10/30 10:33:16;;;;;;;2.47;1.50;;;19.30;48.90;;;;;;20437;6898;118704;-72
2023/10/30 10:35:42;;;;;;;1.60;1.50;;;19.30;49.10;;;;;;20396;6925;117572;-80
2023/10/30 10:38:08;;;;;;;1.33;1.25;;;19.10;49.50;;;;;;20394;6925;118851;-75
2023/10/30 10:40:35;;;;;;;1.77;1.60;;;19.10;49.10;;;;;;20202;6925;295404;-78
2023/10/30 10:43:00;;;;;;;2.13;1.30;;;19.10;49.00;;;;;;20367;6925;119419;-77
2023/10/30 10:45:26;;;;;;;2.97;1.37;;;19.10;49.30;;;;;;20167;6925;318203;-76
2023/10/30 10:47:52;;;;;;;2.37;1.57;;;19.20;48.40;;;;;;20130;6925;281411;-75
2023/10/30 10:50:17;;;;;;;2.60;1.30;;;19.50;48.50;;;;;;20371;6925;118975;-76
2023/10/30 10:52:43;;;;;;;1.58;1.20;;;19.40;48.70;;;;;;20173;6925;287092;-76
2023/10/30 10:55:09;;;;;;;1.00;1.00;;;19.50;47.80;;;;;;20173;6925;316254;-75
2023/10/30 10:57:51;;;;;;;1.90;1.33;;;19.70;47.50;;;;;;20174;6925;311080;-75
2023/10/30 11:00:16;;;;;;;3.60;1.40;;;19.90;47.00;;;;;;20149;6925;281239;-74
2023/10/30 11:02:42;;;;;;;1.27;1.27;;;19.90;47.80;;;;;;20376;6925;117570;-74
2023/10/30 11:05:08;;;;;;;6.73;1.60;;;19.90;47.80;;;;;;20163;6925;327069;-75
2023/10/30 11:07:49;;;;;;;1.27;1.05;;;19.90;47.70;;;;;;20178;6925;340384;-80
2023/10/30 11:10:25;;;;;;;1.53;1.20;;;20.00;47.10;;;;;;20366;6925;124148;-76
2023/10/30 11:13:15;;;;;;;3.58;1.23;;;19.80;47.70;;;;;;20166;6925;315314;-80
2023/10/30 11:15:47;;;;;;;2.40;1.20;;;19.80;47.40;;;;;;19664;6939;126299;-79
2023/10/30 11:18:17;;;;;;;1.37;0.90;;;19.40;48.50;;;;;;20378;6911;117827;-79
2023/10/30 11:20:42;;;;;;;2.07;1.20;;;19.40;48.50;;;;;;20268;6919;117946;-78
2023/10/30 11:23:09;;;;;;;1.10;1.00;;;19.00;49.30;;;;;;20346;6908;117600;-79
2023/10/30 11:25:38;;;;;;;1.00;1.00;;;19.00;49.30;;;;;;20433;6908;116811;-77
2023/10/30 11:28:02;;;;;;;1.93;1.47;;;18.90;49.60;;;;;;20379;6923;118361;-79
2023/10/30 11:30:31;;;;;;;2.20;1.17;;;18.70;49.90;;;;;;20180;6920;311028;-83
2023/10/30 11:32:57;;;;;;;0.97;0.97;;;18.90;48.70;;;;;;20455;6911;122537;-80
2023/10/30 11:35:22;;;;;;;3.08;1.05;;;18.80;49.30;;;;;;20458;6911;117091;-78
2023/10/30 11:37:47;;;;;;;2.33;1.10;;;18.70;49.20;;;;;;20429;6911;118172;-79
2023/10/30 11:40:13;;;;;;;1.33;1.23;;;18.60;49.50;;;;;;20243;6907;347164;-78
2023/10/30 11:42:43;;;;;;;1.40;1.30;;;18.80;48.70;;;;;;20244;6908;280349;-78
2023/10/30 11:45:30;;;;;;;3.08;1.20;;;19.10;48.20;;;;;;20239;6908;339713;-78
2023/10/30 11:47:56;;;;;;;1.30;1.20;;;19.40;48.10;;;;;;20223;6908;346062;-78
2023/10/30 11:50:21;;;;;;;2.37;1.30;;;19.60;47.10;;;;;;20248;6908;279916;-77
2023/10/30 11:52:47;;;;;;;1.40;1.30;;;19.80;46.70;;;;;;20250;6908;122434;-77
2023/10/30 11:55:13;;;;;;;1.60;1.33;;;19.70;47.40;;;;;;20357;6908;121942;-79
2023/10/30 11:57:38;;;;;;;1.53;1.37;;;19.50;48.00;;;;;;20402;6908;118196;-78
2023/10/30 12:00:04;;;;;;;2.40;1.73;;;19.30;48.60;;;;;;20448;6908;117803;-78
2023/10/30 12:02:30;;;;;;;1.57;1.40;;;19.20;49.00;;;;;;20265;6908;317232;-78
2023/10/30 12:05:06;;;;;;;1.20;1.10;;;19.40;48.20;;;;;;20490;6908;117966;-79
2023/10/30 12:07:31;;;;;;;1.00;1.00;;;19.40;48.90;;;;;;20458;6908;117594;-78
2023/10/30 12:09:57;;;;;;;1.17;1.10;;;19.30;48.80;;;;;;20463;6898;118216;-77
2023/10/30 12:12:23;;;;;;;0.93;0.85;;;19.20;48.90;;;;;;20233;6899;339304;-78
2023/10/30 12:14:49;;;;;;;1.47;1.10;;;19.40;48.40;;;;;;20491;6899;122225;-79
2023/10/30 12:17:14;;;;;;;1.30;1.17;;;19.40;47.70;;;;;;20310;6899;279773;-78
2023/10/30 12:19:40;;;;;;;2.53;1.30;;;19.60;46.80;;;;;;20214;6925;312050;-77
2023/10/30 12:22:05;;;;;;;1.20;1.10;;;19.80;46.40;;;;;;20233;6908;287937;-79
2023/10/30 12:24:31;;;;;;;0.73;0.73;;;20.00;46.30;;;;;;20461;6908;118185;-77
2023/10/30 12:26:57;;;;;;;1.27;0.90;;;20.00;46.80;;;;;;20453;6908;117526;-78
2023/10/30 12:29:22;;;;;;;1.23;1.10;;;19.70;47.30;;;;;;20416;6923;67862;-79